Time;durP1;ratioP1;P1;durP2;ratioP2;P2;SDS_P1;SDS_P2;PMS_P1;PMS_P2;Temp;Humidity;BMP_temperature;BMP_pressure;BME280_temperature;BME280_humidity;BME280_pressure;Samples;Min_cycle;Max_cycle;Signal;HPM_P1;HPM_P2
2022/04/12 00:01:13;;;;;;;6.63;3.90;;;;;;;;;;5014110;28;20263;-65
2022/04/12 00:03:39;;;;;;;6.57;3.80;;;;;;;;;;5013963;28;20176;-65
2022/04/12 00:06:05;;;;;;;6.97;3.87;;;;;;;;;;5013995;28;20184;-66
2022/04/12 00:08:31;;;;;;;5.23;3.97;;;;;;;;;;5013863;28;20176;-65
2022/04/12 00:10:57;;;;;;;7.37;4.07;;;;;;;;;;4996240;28;20326;-66
2022/04/12 00:13:23;;;;;;;5.40;3.70;;;;;;;;;;4996161;28;20187;-65
2022/04/12 00:15:49;;;;;;;4.67;4.07;;;;;;;;;;4996131;28;20611;-65
2022/04/12 00:21:00;;;;;;;7.70;3.90;;;;;;;;;;5013852;28;20175;-65
2022/04/12 00:23:26;;;;;;;5.07;3.77;;;;;;;;;;5013869;28;20222;-64
2022/04/12 00:25:53;;;;;;;5.20;3.83;;;;;;;;;;5013632;28;20274;-65
2022/04/12 00:28:19;;;;;;;5.27;3.80;;;;;;;;;;5013692;28;20192;-65
2022/04/12 00:30:45;;;;;;;4.23;3.67;;;;;;;;;;4995965;28;20184;-65
2022/04/12 00:33:11;;;;;;;4.80;3.50;;;;;;;;;;5013583;28;20283;-65
2022/04/12 00:35:37;;;;;;;8.13;5.00;;;;;;;;;;5013517;28;20265;-65
2022/04/12 00:38:17;;;;;;;6.03;4.00;;;;;;;;;;5013528;28;20195;-66
2022/04/12 00:40:44;;;;;;;5.97;3.97;;;;;;;;;;5013846;28;20662;-65
2022/04/12 00:43:10;;;;;;;7.00;4.07;;;;;;;;;;5013511;28;20606;-64
2022/04/12 00:45:36;;;;;;;6.40;4.03;;;;;;;;;;5013425;28;20180;-65
2022/04/12 00:48:02;;;;;;;6.90;4.13;;;;;;;;;;5013494;28;20203;-65
2022/04/12 00:50:28;;;;;;;8.07;4.53;;;;;;;;;;4995751;28;20183;-65
2022/04/12 00:52:55;;;;;;;5.80;4.00;;;;;;;;;;4995832;28;20671;-65
2022/04/12 00:55:22;;;;;;;6.13;4.10;;;;;;;;;;5013262;28;20203;-65
2022/04/12 00:57:48;;;;;;;6.60;4.30;;;;;;;;;;4995821;28;20250;-65
2022/04/12 01:00:16;;;;;;;4.80;3.90;;;;;;;;;;5013419;28;20172;-66
2022/04/12 01:02:42;;;;;;;10.57;4.43;;;;;;;;;;5013269;28;20171;-65
2022/04/12 01:05:08;;;;;;;10.57;4.40;;;;;;;;;;5013239;28;20306;-65
2022/04/12 01:07:35;;;;;;;5.43;3.80;;;;;;;;;;5013264;28;20200;-65
2022/04/12 01:10:01;;;;;;;5.23;4.00;;;;;;;;;;5013576;28;20663;-66
2022/04/12 01:12:28;;;;;;;5.83;4.50;;;;;;;;;;5013214;28;20180;-65
2022/04/12 01:14:55;;;;;;;5.47;4.03;;;;;;;;;;5013253;28;20757;-65
2022/04/12 01:17:21;;;;;;;4.80;3.83;;;;;;;;;;5013340;28;20246;-65
2022/04/12 01:19:47;;;;;;;7.10;3.90;;;;;;;;;;5013193;28;20617;-65
2022/04/12 01:22:16;;;;;;;8.37;4.50;;;;;;;;;;4998419;28;20184;-65
2022/04/12 01:24:42;;;;;;;7.13;4.13;;;;;;;;;;5016988;28;20184;-67
2022/04/12 01:27:08;;;;;;;6.13;4.27;;;;;;;;;;5016797;28;20221;-65
2022/04/12 01:29:35;;;;;;;8.57;4.47;;;;;;;;;;4999301;28;20627;-66
2022/04/12 01:32:02;;;;;;;5.53;3.90;;;;;;;;;;5017291;28;20176;-65
2022/04/12 01:34:29;;;;;;;6.43;5.20;;;;;;;;;;5016853;28;20207;-65
2022/04/12 01:36:55;;;;;;;6.10;4.07;;;;;;;;;;5016664;28;20195;-65
2022/04/12 01:39:21;;;;;;;4.80;3.93;;;;;;;;;;5016614;28;20659;-65
2022/04/12 01:41:47;;;;;;;5.77;4.43;;;;;;;;;;4998869;28;20206;-65
2022/04/12 01:44:13;;;;;;;6.20;4.33;;;;;;;;;;4999068;28;20282;-65
2022/04/12 01:46:39;;;;;;;7.60;4.60;;;;;;;;;;5016424;28;20283;-65
2022/04/12 01:49:05;;;;;;;6.10;4.27;;;;;;;;;;5016566;28;20216;-66
2022/04/12 01:51:31;;;;;;;10.47;4.60;;;;;;;;;;5017456;28;20176;-65
2022/04/12 01:53:57;;;;;;;5.97;4.00;;;;;;;;;;5017040;28;20259;-66
2022/04/12 01:56:24;;;;;;;5.17;3.93;;;;;;;;;;5017028;28;20287;-66
2022/04/12 01:58:50;;;;;;;7.13;5.00;;;;;;;;;;5017247;28;20671;-65
2022/04/12 02:01:16;;;;;;;5.27;4.30;;;;;;;;;;4999826;28;20218;-65
2022/04/12 02:03:42;;;;;;;5.57;4.13;;;;;;;;;;5016960;28;20186;-66
2022/04/12 02:06:08;;;;;;;7.60;4.67;;;;;;;;;;5017114;28;20179;-66
2022/04/12 02:08:35;;;;;;;5.50;4.20;;;;;;;;;;4999885;28;20179;-66
2022/04/12 02:11:01;;;;;;;6.80;4.47;;;;;;;;;;5017466;28;20207;-65
2022/04/12 02:13:27;;;;;;;5.70;4.40;;;;;;;;;;4999624;28;20552;-64
2022/04/12 02:15:53;;;;;;;4.87;4.33;;;;;;;;;;5016917;28;20691;-65
2022/04/12 02:18:19;;;;;;;8.07;4.43;;;;;;;;;;5016819;28;20608;-65
2022/04/12 02:20:45;;;;;;;5.67;4.47;;;;;;;;;;5018042;28;20176;-65
2022/04/12 02:23:11;;;;;;;5.23;4.37;;;;;;;;;;4999122;28;20558;-65
2022/04/12 02:25:37;;;;;;;7.57;4.60;;;;;;;;;;5019042;28;20188;-65
2022/04/12 02:28:03;;;;;;;7.43;4.60;;;;;;;;;;5017027;28;20222;-65
2022/04/12 02:30:29;;;;;;;6.27;4.57;;;;;;;;;;4998152;28;20342;-66
2022/04/12 02:32:55;;;;;;;6.70;4.27;;;;;;;;;;4996933;28;20256;-65
2022/04/12 02:35:21;;;;;;;5.10;4.23;;;;;;;;;;5015827;28;20314;-65
2022/04/12 02:37:47;;;;;;;6.87;4.53;;;;;;;;;;5015819;28;20207;-66
2022/04/12 02:40:13;;;;;;;4.93;4.33;;;;;;;;;;5015621;28;20640;-65
2022/04/12 02:42:39;;;;;;;7.17;4.27;;;;;;;;;;5015760;28;20597;-65
2022/04/12 02:45:05;;;;;;;5.43;4.50;;;;;;;;;;5015367;28;20584;-65
2022/04/12 02:47:31;;;;;;;6.80;4.27;;;;;;;;;;4997648;28;20211;-65
2022/04/12 02:49:57;;;;;;;6.33;4.77;;;;;;;;;;5022310;22;20205;-62
2022/04/12 02:52:23;;;;;;;6.57;4.60;;;;;;;;;;5015891;28;20584;-65
2022/04/12 02:54:49;;;;;;;8.33;4.57;;;;;;;;;;4997927;28;20219;-65
2022/04/12 02:57:15;;;;;;;6.53;4.33;;;;;;;;;;4997830;28;20180;-65
2022/04/12 02:59:41;;;;;;;5.60;4.27;;;;;;;;;;5015310;28;20303;-65
2022/04/12 03:02:07;;;;;;;5.73;4.00;;;;;;;;;;5015851;28;20259;-65
2022/04/12 03:04:33;;;;;;;10.13;4.60;;;;;;;;;;5015281;28;20598;-64
2022/04/12 03:06:59;;;;;;;9.33;5.27;;;;;;;;;;5015341;28;20186;-62
2022/04/12 03:09:25;;;;;;;7.03;4.73;;;;;;;;;;5015267;28;20266;-64
2022/04/12 03:11:51;;;;;;;7.63;4.70;;;;;;;;;;5015352;28;20200;-63
2022/04/12 03:14:17;;;;;;;7.73;4.83;;;;;;;;;;5015108;28;20200;-63
2022/04/12 03:16:43;;;;;;;8.20;5.03;;;;;;;;;;5014888;28;20187;-63
2022/04/12 03:19:09;;;;;;;7.20;4.63;;;;;;;;;;4997629;28;20711;-63
2022/04/12 03:21:35;;;;;;;9.90;5.07;;;;;;;;;;5014937;28;20196;-63
2022/04/12 03:24:01;;;;;;;9.33;4.37;;;;;;;;;;5015040;28;20262;-63
2022/04/12 03:26:27;;;;;;;7.40;4.73;;;;;;;;;;5014850;28;20222;-63
2022/04/12 03:28:53;;;;;;;6.20;4.50;;;;;;;;;;5014807;28;20207;-63
2022/04/12 03:31:20;;;;;;;6.30;4.87;;;;;;;;;;4996997;28;20208;-63
2022/04/12 03:33:46;;;;;;;7.73;5.20;;;;;;;;;;5014677;28;20263;-64
2022/04/12 03:36:13;;;;;;;8.20;4.37;;;;;;;;;;4997163;28;20219;-63
2022/04/12 03:38:48;;;;;;;8.10;4.73;;;;;;;;;;4997174;28;20195;-63
2022/04/12 03:41:14;;;;;;;6.43;4.90;;;;;;;;;;5014716;28;20195;-64
2022/04/12 03:43:39;;;;;;;7.00;4.83;;;;;;;;;;5014161;28;20176;-65
2022/04/12 03:46:05;;;;;;;7.37;4.87;;;;;;;;;;5014758;28;20608;-63
2022/04/12 03:48:31;;;;;;;8.83;4.80;;;;;;;;;;5014563;28;20667;-63
2022/04/12 03:50:57;;;;;;;7.43;4.60;;;;;;;;;;5014590;28;20602;-63
2022/04/12 03:53:23;;;;;;;9.03;5.77;;;;;;;;;;5015065;28;20647;-63
2022/04/12 03:55:50;;;;;;;6.77;5.03;;;;;;;;;;5015657;28;20227;-63
2022/04/12 03:58:19;;;;;;;10.30;4.70;;;;;;;;;;5015159;28;20175;-63
2022/04/12 04:00:46;;;;;;;8.33;5.00;;;;;;;;;;5014813;28;20675;-63
2022/04/12 04:03:12;;;;;;;9.03;5.33;;;;;;;;;;5014583;28;20176;-64
2022/04/12 04:05:37;;;;;;;6.87;5.07;;;;;;;;;;5014229;28;20241;-64
2022/04/12 04:08:04;;;;;;;5.77;5.17;;;;;;;;;;5014678;28;20263;-63
2022/04/12 04:10:30;;;;;;;7.43;4.80;;;;;;;;;;5014253;28;20346;-64
2022/04/12 04:12:55;;;;;;;7.67;5.10;;;;;;;;;;5014145;28;20669;-65
2022/04/12 04:15:21;;;;;;;5.60;4.50;;;;;;;;;;5014112;28;20287;-65
2022/04/12 04:17:48;;;;;;;8.50;5.00;;;;;;;;;;4997065;28;20183;-64
2022/04/12 04:20:15;;;;;;;7.93;5.20;;;;;;;;;;5014331;28;20202;-65
2022/04/12 04:22:41;;;;;;;5.90;4.90;;;;;;;;;;5014112;28;20179;-64
2022/04/12 04:25:08;;;;;;;8.83;5.30;;;;;;;;;;4996405;28;20187;-64
2022/04/12 04:27:34;;;;;;;8.30;5.50;;;;;;;;;;5014359;28;20180;-64
2022/04/12 04:30:00;;;;;;;7.47;5.50;;;;;;;;;;5013905;28;20262;-64
2022/04/12 04:32:26;;;;;;;6.87;4.70;;;;;;;;;;5013813;28;20690;-64
2022/04/12 04:34:52;;;;;;;9.70;4.37;;;;;;;;;;5013789;28;20207;-64
2022/04/12 04:37:18;;;;;;;8.00;4.97;;;;;;;;;;4996292;28;20606;-63
2022/04/12 04:39:44;;;;;;;11.40;5.70;;;;;;;;;;5014167;28;20185;-63
2022/04/12 04:42:11;;;;;;;9.50;5.83;;;;;;;;;;5014332;28;20191;-63
2022/04/12 04:44:37;;;;;;;10.07;6.30;;;;;;;;;;4996312;28;20278;-64
2022/04/12 04:47:03;;;;;;;6.50;5.50;;;;;;;;;;4996816;28;20183;-63
2022/04/12 04:49:29;;;;;;;7.73;5.20;;;;;;;;;;5013614;28;20187;-63
2022/04/12 04:51:55;;;;;;;9.33;5.33;;;;;;;;;;4995817;28;20583;-64
2022/04/12 04:54:21;;;;;;;11.67;5.83;;;;;;;;;;4996415;28;20200;-65
2022/04/12 04:56:46;;;;;;;8.20;5.63;;;;;;;;;;5016015;28;20722;-65
2022/04/12 04:59:13;;;;;;;10.43;5.27;;;;;;;;;;5000088;28;20595;-63
2022/04/12 05:01:39;;;;;;;10.90;5.47;;;;;;;;;;5017263;28;20217;-64
2022/04/12 05:04:05;;;;;;;9.63;5.53;;;;;;;;;;5017371;28;20620;-66
2022/04/12 05:06:31;;;;;;;11.23;6.47;;;;;;;;;;5017738;28;20203;-66
2022/04/12 05:08:57;;;;;;;9.17;5.97;;;;;;;;;;4999815;28;20609;-64
2022/04/12 05:11:23;;;;;;;8.80;5.97;;;;;;;;;;5017233;28;20199;-64
2022/04/12 05:13:49;;;;;;;8.00;6.20;;;;;;;;;;5017077;28;20263;-64
2022/04/12 05:16:15;;;;;;;13.37;6.03;;;;;;;;;;5017089;28;20253;-64
2022/04/12 05:18:41;;;;;;;8.73;6.30;;;;;;;;;;4999393;28;20180;-65
2022/04/12 05:21:07;;;;;;;12.87;6.10;;;;;;;;;;4999553;28;20195;-64
2022/04/12 05:23:33;;;;;;;10.87;7.17;;;;;;;;;;5017406;28;20192;-64
2022/04/12 05:26:00;;;;;;;9.90;6.43;;;;;;;;;;4999354;28;20188;-64
2022/04/12 05:28:25;;;;;;;12.30;6.40;;;;;;;;;;4999234;28;20184;-64
2022/04/12 05:30:51;;;;;;;8.47;6.27;;;;;;;;;;5017002;28;20202;-64
2022/04/12 05:33:17;;;;;;;15.57;7.07;;;;;;;;;;4999349;28;20280;-65
2022/04/12 05:35:43;;;;;;;12.03;7.20;;;;;;;;;;5016694;28;20239;-65
2022/04/12 05:38:09;;;;;;;18.63;6.60;;;;;;;;;;5016868;28;20191;-65
2022/04/12 05:40:35;;;;;;;18.60;7.53;;;;;;;;;;5016769;28;20199;-65
2022/04/12 05:43:01;;;;;;;13.07;7.40;;;;;;;;;;4999325;28;20207;-65
2022/04/12 05:45:27;;;;;;;10.27;7.30;;;;;;;;;;4999001;28;20188;-65
2022/04/12 05:47:54;;;;;;;11.40;7.27;;;;;;;;;;4999068;28;20183;-64
2022/04/12 05:50:21;;;;;;;13.70;6.57;;;;;;;;;;5016390;28;20280;-65
2022/04/12 05:52:47;;;;;;;18.77;7.70;;;;;;;;;;5016565;28;20187;-65
2022/04/12 05:55:15;;;;;;;13.87;6.47;;;;;;;;;;5016436;28;20262;-65
2022/04/12 05:57:51;;;;;;;9.13;7.37;;;;;;;;;;5016479;28;20262;-65
2022/04/12 06:00:18;;;;;;;16.47;6.90;;;;;;;;;;4998762;28;20688;-65
2022/04/12 06:02:44;;;;;;;13.90;7.17;;;;;;;;;;5016361;28;20172;-65
2022/04/12 06:05:13;;;;;;;13.10;6.10;;;;;;;;;;5016664;28;20180;-65
2022/04/12 06:07:39;;;;;;;9.47;5.87;;;;;;;;;;4998479;28;20191;-65
2022/04/12 06:10:05;;;;;;;9.10;5.00;;;;;;;;;;5016194;28;20224;-65
2022/04/12 06:12:31;;;;;;;9.40;5.00;;;;;;;;;;5016160;28;20180;-65
2022/04/12 06:14:57;;;;;;;6.70;4.30;;;;;;;;;;5016053;28;20210;-65
2022/04/12 06:17:33;;;;;;;5.93;4.00;;;;;;;;;;5016359;28;20545;-65
2022/04/12 06:20:10;;;;;;;4.50;3.27;;;;;;;;;;4998322;28;20614;-64
2022/04/12 06:22:36;;;;;;;7.10;4.17;;;;;;;;;;5016408;28;20175;-65
2022/04/12 06:25:03;;;;;;;6.03;3.97;;;;;;;;;;5016240;28;20597;-65
2022/04/12 06:27:36;;;;;;;4.80;3.67;;;;;;;;;;5016184;28;20187;-65
2022/04/12 06:30:09;;;;;;;6.60;4.23;;;;;;;;;;5015776;28;20214;-65
2022/04/12 06:32:35;;;;;;;6.97;4.17;;;;;;;;;;5016377;28;20172;-65
2022/04/12 06:35:02;;;;;;;3.83;3.47;;;;;;;;;;4998294;28;20203;-65
2022/04/12 06:37:28;;;;;;;5.53;3.80;;;;;;;;;;5015858;28;20191;-66
2022/04/12 06:39:56;;;;;;;4.53;3.73;;;;;;;;;;5016235;28;20183;-65
2022/04/12 06:42:22;;;;;;;3.93;3.53;;;;;;;;;;5015851;28;20659;-65
2022/04/12 06:44:48;;;;;;;5.57;3.93;;;;;;;;;;5016242;28;20184;-65
2022/04/12 06:47:16;;;;;;;6.20;4.17;;;;;;;;;;4998275;28;20334;-65
2022/04/12 06:49:45;;;;;;;6.70;3.80;;;;;;;;;;5016052;28;20176;-65
2022/04/12 06:52:12;;;;;;;6.97;3.83;;;;;;;;;;4998242;28;20314;-65
2022/04/12 06:54:37;;;;;;;5.03;3.70;;;;;;;;;;4998302;28;20199;-65
2022/04/12 06:57:04;;;;;;;4.20;3.73;;;;;;;;;;5015757;28;20195;-66
2022/04/12 06:59:29;;;;;;;7.60;3.67;;;;;;;;;;5016173;28;20564;-65
2022/04/12 07:01:55;;;;;;;5.93;4.17;;;;;;;;;;4998239;28;20192;-68
2022/04/12 07:04:21;;;;;;;6.10;4.20;;;;;;;;;;4997926;28;20656;-68
2022/04/12 07:06:48;;;;;;;5.47;3.53;;;;;;;;;;5015571;28;20194;-65
2022/04/12 07:09:22;;;;;;;5.57;4.07;;;;;;;;;;5015959;28;20180;-65
2022/04/12 07:11:48;;;;;;;8.10;4.33;;;;;;;;;;5015315;28;20202;-65
2022/04/12 07:14:14;;;;;;;4.37;3.67;;;;;;;;;;5015399;28;20230;-66
2022/04/12 07:16:40;;;;;;;7.27;3.50;;;;;;;;;;5015397;28;20245;-65
2022/04/12 07:19:06;;;;;;;6.10;3.60;;;;;;;;;;5014779;28;20180;-65
2022/04/12 07:21:33;;;;;;;5.60;4.07;;;;;;;;;;5015499;28;20192;-65
2022/04/12 07:23:59;;;;;;;7.03;4.20;;;;;;;;;;5015018;28;20554;-65
2022/04/12 07:26:25;;;;;;;5.60;4.10;;;;;;;;;;4997322;28;20195;-65
2022/04/12 07:28:51;;;;;;;3.63;3.33;;;;;;;;;;5015149;28;20188;-65
2022/04/12 07:31:17;;;;;;;7.93;4.27;;;;;;;;;;4997627;28;20204;-65
2022/04/12 07:33:43;;;;;;;5.63;3.60;;;;;;;;;;5015134;28;20230;-64
2022/04/12 07:36:09;;;;;;;5.17;3.70;;;;;;;;;;5015155;28;20203;-65
2022/04/12 07:38:35;;;;;;;6.40;3.77;;;;;;;;;;5015030;28;20185;-65
2022/04/12 07:41:01;;;;;;;4.73;3.80;;;;;;;;;;4997125;28;20203;-65
2022/04/12 07:43:27;;;;;;;4.43;3.60;;;;;;;;;;5014317;28;20187;-65
2022/04/12 07:45:53;;;;;;;5.47;3.40;;;;;;;;;;5015060;28;20237;-65
2022/04/12 07:48:19;;;;;;;4.00;3.57;;;;;;;;;;5014221;28;20274;-64
2022/04/12 07:50:45;;;;;;;4.07;3.27;;;;;;;;;;5013966;28;20219;-65
2022/04/12 07:53:11;;;;;;;6.27;3.50;;;;;;;;;;5014610;28;20187;-65
2022/04/12 07:55:37;;;;;;;5.37;3.37;;;;;;;;;;4996501;28;20231;-65
2022/04/12 07:58:02;;;;;;;6.10;3.80;;;;;;;;;;4996691;28;20172;-65
2022/04/12 08:00:29;;;;;;;4.83;3.27;;;;;;;;;;5014323;28;20707;-66
2022/04/12 08:02:55;;;;;;;6.40;3.30;;;;;;;;;;4996783;28;20180;-65
2022/04/12 08:05:21;;;;;;;5.00;3.20;;;;;;;;;;5014232;28;20190;-65
2022/04/12 08:07:49;;;;;;;4.67;3.23;;;;;;;;;;5014207;28;20188;-65
2022/04/12 08:10:16;;;;;;;5.33;3.30;;;;;;;;;;5014441;28;20580;-65
2022/04/12 08:12:42;;;;;;;4.90;3.20;;;;;;;;;;5015307;28;20179;-65
2022/04/12 08:15:09;;;;;;;5.63;3.37;;;;;;;;;;4997484;28;20214;-65
2022/04/12 08:17:35;;;;;;;7.27;3.50;;;;;;;;;;4997339;28;20187;-66
2022/04/12 08:20:01;;;;;;;4.73;3.37;;;;;;;;;;5015319;28;20547;-65
2022/04/12 08:22:27;;;;;;;5.20;3.20;;;;;;;;;;5014328;28;20255;-67
2022/04/12 08:24:53;;;;;;;6.83;3.20;;;;;;;;;;5014125;28;20286;-64
2022/04/12 08:27:19;;;;;;;4.33;2.93;;;;;;;;;;5014349;28;20184;-64
2022/04/12 08:29:46;;;;;;;3.40;2.80;;;;;;;;;;5014408;28;20184;-64
2022/04/12 08:32:12;;;;;;;5.03;3.00;;;;;;;;;;5014022;28;20230;-65
2022/04/12 08:34:38;;;;;;;5.57;3.17;;;;;;;;;;5013590;28;20214;-65
2022/04/12 08:37:05;;;;;;;5.37;2.93;;;;;;;;;;5013960;28;20175;-65
2022/04/12 08:39:31;;;;;;;3.73;2.90;;;;;;;;;;5014675;28;20603;-65
2022/04/12 08:41:59;;;;;;;6.90;2.83;;;;;;;;;;5013596;28;20676;-65
2022/04/12 08:44:25;;;;;;;10.80;3.70;;;;;;;;;;4996236;28;20187;-65
2022/04/12 08:46:51;;;;;;;5.13;2.60;;;;;;;;;;4995893;28;20652;-65
2022/04/12 08:49:18;;;;;;;5.07;2.63;;;;;;;;;;5013614;28;20213;-65
2022/04/12 08:51:46;;;;;;;2.90;2.50;;;;;;;;;;5013482;28;20695;-65
2022/04/12 08:54:12;;;;;;;6.97;2.67;;;;;;;;;;5013172;23;20313;-64
2022/04/12 08:56:40;;;;;;;4.83;2.40;;;;;;;;;;5013964;28;20175;-64
2022/04/12 08:59:06;;;;;;;5.03;2.60;;;;;;;;;;5013873;28;20172;-64
2022/04/12 09:01:32;;;;;;;4.50;2.70;;;;;;;;;;4996780;28;20719;-65
2022/04/12 09:03:58;;;;;;;3.93;2.57;;;;;;;;;;5013515;28;20282;-64
2022/04/12 09:06:24;;;;;;;7.80;3.00;;;;;;;;;;5013571;28;20555;-64
2022/04/12 09:08:50;;;;;;;4.07;2.63;;;;;;;;;;4995715;28;20180;-64
2022/04/12 09:11:17;;;;;;;4.60;2.60;;;;;;;;;;5013028;28;20180;-64
2022/04/12 09:13:58;;;;;;;3.93;2.97;;;;;;;;;;5013015;28;20223;-62
2022/04/12 09:16:24;;;;;;;7.73;3.30;;;;;;;;;;4995604;28;20277;-65
2022/04/12 09:18:50;;;;;;;6.07;3.53;;;;;;;;;;5013338;28;20212;-62
2022/04/12 09:21:20;;;;;;;3.97;2.60;;;;;;;;;;5012879;28;20187;-63
2022/04/12 09:23:49;;;;;;;6.23;2.70;;;;;;;;;;5012842;28;20204;-63
2022/04/12 09:26:16;;;;;;;6.20;2.90;;;;;;;;;;5012985;28;20179;-64
2022/04/12 09:28:42;;;;;;;4.73;2.80;;;;;;;;;;4995419;28;20183;-63
2022/04/12 09:31:16;;;;;;;5.97;2.93;;;;;;;;;;5013114;28;20280;-62
2022/04/12 09:33:42;;;;;;;5.60;2.80;;;;;;;;;;4995157;28;20204;-62
2022/04/12 09:36:09;;;;;;;6.33;3.13;;;;;;;;;;5012819;28;20200;-62
2022/04/12 09:38:36;;;;;;;5.23;3.43;;;;;;;;;;4995255;28;20644;-62
2022/04/12 09:41:16;;;;;;;5.90;4.30;;;;;;;;;;4996160;28;20187;-64
2022/04/12 09:43:51;;;;;;;6.20;4.10;;;;;;;;;;4998837;28;20738;-63
2022/04/12 09:46:17;;;;;;;5.13;3.60;;;;;;;;;;5017320;28;20167;-64
2022/04/12 09:48:47;;;;;;;4.17;2.97;;;;;;;;;;5017155;28;20183;-62
2022/04/12 09:51:13;;;;;;;5.97;3.27;;;;;;;;;;5016584;28;20602;-65
2022/04/12 09:53:40;;;;;;;6.80;3.13;;;;;;;;;;5016389;28;20230;-64
2022/04/12 09:56:23;;;;;;;7.07;3.50;;;;;;;;;;5016951;28;20245;-64
2022/04/12 09:58:51;;;;;;;8.87;3.70;;;;;;;;;;4998904;28;20180;-64
2022/04/12 10:01:17;;;;;;;4.33;3.00;;;;;;;;;;5016855;28;20183;-64
2022/04/12 10:03:45;;;;;;;7.23;3.60;;;;;;;;;;5016451;28;20200;-66
2022/04/12 10:06:12;;;;;;;9.20;4.10;;;;;;;;;;5016542;28;20685;-64
2022/04/12 10:08:40;;;;;;;7.50;4.00;;;;;;;;;;4998829;28;20270;-63
2022/04/12 10:11:07;;;;;;;8.27;3.53;;;;;;;;;;5016381;28;20718;-64
2022/04/12 10:13:34;;;;;;;6.13;3.10;;;;;;;;;;5016247;28;20207;-65
2022/04/12 10:16:00;;;;;;;6.17;3.70;;;;;;;;;;4998577;28;20220;-64
2022/04/12 10:18:25;;;;;;;6.80;3.40;;;;;;;;;;5016819;28;20243;-63
2022/04/12 10:20:52;;;;;;;7.80;3.37;;;;;;;;;;5016544;28;20175;-64
2022/04/12 10:23:23;;;;;;;3.83;3.00;;;;;;;;;;4998422;28;20175;-64
2022/04/12 10:25:53;;;;;;;5.93;3.20;;;;;;;;;;4998949;28;20628;-64
2022/04/12 10:28:20;;;;;;;9.70;3.60;;;;;;;;;;4998238;28;20188;-64
2022/04/12 10:30:46;;;;;;;5.03;3.43;;;;;;;;;;5015795;28;20179;-64
2022/04/12 10:33:27;;;;;;;8.73;3.57;;;;;;;;;;5015570;28;20268;-64
2022/04/12 10:35:56;;;;;;;5.97;3.47;;;;;;;;;;5015773;28;20735;-64
2022/04/12 10:38:23;;;;;;;5.47;3.30;;;;;;;;;;4998231;28;20188;-63
2022/04/12 10:40:51;;;;;;;6.03;3.43;;;;;;;;;;5016230;28;20180;-67
2022/04/12 10:43:36;;;;;;;11.33;4.13;;;;;;;;;;5015416;28;20176;-64
2022/04/12 10:46:03;;;;;;;11.23;5.60;;;;;;;;;;5015812;28;20191;-64
2022/04/12 10:48:29;;;;;;;4.87;2.70;;;;;;;;;;4997758;28;20179;-64
2022/04/12 10:50:56;;;;;;;2.73;1.87;;;;;;;;;;4997774;28;20603;-64
2022/04/12 10:53:37;;;;;;;4.20;2.40;;;;;;;;;;5014090;28;20179;-64
2022/04/12 10:56:11;;;;;;;6.03;2.53;;;;;;;;;;4997579;28;20551;-66
2022/04/12 10:58:37;;;;;;;4.03;2.17;;;;;;;;;;4997493;28;20267;-62
2022/04/12 11:01:04;;;;;;;3.90;2.47;;;;;;;;;;5015665;28;20357;-64
2022/04/12 11:03:42;;;;;;;4.17;2.70;;;;;;;;;;5015126;28;20203;-64
2022/04/12 11:06:12;;;;;;;3.83;2.37;;;;;;;;;;5015302;28;20176;-64
2022/04/12 11:08:38;;;;;;;3.70;2.37;;;;;;;;;;4997883;28;20188;-64
2022/04/12 11:11:04;;;;;;;5.30;2.47;;;;;;;;;;5015141;28;20199;-64
2022/04/12 11:13:34;;;;;;;3.93;2.40;;;;;;;;;;5015106;28;20204;-65
2022/04/12 11:16:11;;;;;;;4.10;2.07;;;;;;;;;;4997280;28;20200;-64
2022/04/12 11:18:53;;;;;;;4.93;2.43;;;;;;;;;;5014943;28;20630;-63
2022/04/12 11:21:20;;;;;;;4.93;2.70;;;;;;;;;;5014955;28;20175;-64
2022/04/12 11:23:47;;;;;;;3.80;2.60;;;;;;;;;;5015179;28;20191;-64
2022/04/12 11:26:32;;;;;;;7.40;3.60;;;;;;;;;;5014748;28;20180;-64
2022/04/12 11:28:59;;;;;;;6.37;3.20;;;;;;;;;;4996970;28;20195;-64
2022/04/12 11:31:24;;;;;;;11.47;5.57;;;;;;;;;;5014576;28;20671;-65
2022/04/12 11:33:50;;;;;;;7.63;3.23;;;;;;;;;;5014888;28;20227;-65
2022/04/12 11:36:20;;;;;;;3.57;2.40;;;;;;;;;;5014629;28;20572;-64
2022/04/12 11:38:46;;;;;;;3.40;2.17;;;;;;;;;;5014560;28;20217;-64
2022/04/12 11:41:12;;;;;;;3.97;2.37;;;;;;;;;;5014742;28;20175;-64
2022/04/12 11:43:37;;;;;;;4.37;2.53;;;;;;;;;;5014731;28;20203;-64
2022/04/12 11:46:03;;;;;;;8.50;2.53;;;;;;;;;;5014378;28;20237;-65
2022/04/12 11:48:30;;;;;;;4.23;2.80;;;;;;;;;;5014438;28;20546;-64
2022/04/12 11:50:57;;;;;;;2.80;2.10;;;;;;;;;;5014685;28;20180;-65
2022/04/12 11:53:24;;;;;;;6.07;2.17;;;;;;;;;;4996378;28;20191;-64
2022/04/12 11:55:50;;;;;;;4.17;2.77;;;;;;;;;;5014506;28;20258;-64
2022/04/12 11:58:20;;;;;;;7.10;2.83;;;;;;;;;;4996796;28;20187;-64
2022/04/12 12:00:46;;;;;;;5.60;2.90;;;;;;;;;;5014568;28;20528;-64
2022/04/12 12:03:19;;;;;;;5.13;2.80;;;;;;;;;;5014546;28;20171;-64
2022/04/12 12:05:48;;;;;;;5.50;2.30;;;;;;;;;;4996249;28;20184;-65
2022/04/12 12:08:19;;;;;;;5.77;3.10;;;;;;;;;;4996591;28;20187;-66
2022/04/12 12:10:45;;;;;;;6.37;2.40;;;;;;;;;;5014195;28;20175;-64
2022/04/12 12:13:12;;;;;;;3.47;2.47;;;;;;;;;;5013913;28;20263;-64
2022/04/12 12:15:38;;;;;;;3.97;2.70;;;;;;;;;;5013960;28;20206;-64
2022/04/12 12:18:06;;;;;;;8.80;2.80;;;;;;;;;;5013852;28;20553;-65
2022/04/12 12:20:34;;;;;;;3.63;2.30;;;;;;;;;;4996361;28;20198;-65
2022/04/12 12:23:01;;;;;;;2.63;2.20;;;;;;;;;;5014029;28;20174;-65
2022/04/12 12:25:38;;;;;;;4.37;2.20;;;;;;;;;;5013913;28;20648;-65
2022/04/12 12:28:09;;;;;;;2.53;1.80;;;;;;;;;;4996146;28;20239;-63
2022/04/12 12:30:35;;;;;;;5.43;1.80;;;;;;;;;;4996069;28;20207;-65
2022/04/12 12:33:01;;;;;;;4.43;2.10;;;;;;;;;;4996083;28;20180;-64
2022/04/12 12:35:28;;;;;;;5.43;2.00;;;;;;;;;;5013616;28;20298;-65
2022/04/12 12:38:13;;;;;;;5.40;1.90;;;;;;;;;;5013626;28;20710;-66
2022/04/12 12:40:39;;;;;;;3.23;2.47;;;;;;;;;;5013646;28;20598;-65
2022/04/12 12:43:06;;;;;;;3.40;1.80;;;;;;;;;;5014056;28;20184;-63
2022/04/12 12:45:33;;;;;;;4.67;2.20;;;;;;;;;;5013484;28;20230;-64
2022/04/12 12:47:59;;;;;;;2.57;1.93;;;;;;;;;;4995713;28;20266;-65
2022/04/12 12:50:26;;;;;;;7.07;1.97;;;;;;;;;;5014023;28;20214;-64
2022/04/12 12:53:03;;;;;;;4.87;2.20;;;;;;;;;;5013388;28;20219;-65
2022/04/12 12:55:30;;;;;;;4.33;2.20;;;;;;;;;;5013291;28;20218;-64
2022/04/12 12:57:57;;;;;;;2.87;1.97;;;;;;;;;;5013638;28;20255;-64
2022/04/12 13:00:27;;;;;;;5.13;2.43;;;;;;;;;;5013963;28;20176;-65
2022/04/12 13:03:09;;;;;;;4.07;2.60;;;;;;;;;;4995972;28;20184;-68
2022/04/12 13:05:54;;;;;;;5.20;2.20;;;;;;;;;;5015329;28;20180;-62
2022/04/12 13:08:26;;;;;;;4.60;2.53;;;;;;;;;;5013749;28;20194;-63
2022/04/12 13:10:54;;;;;;;5.60;2.37;;;;;;;;;;5013769;28;20233;-63
2022/04/12 13:13:20;;;;;;;5.00;1.80;;;;;;;;;;4995853;28;20179;-63
2022/04/12 13:15:47;;;;;;;3.03;2.00;;;;;;;;;;4995774;28;20219;-64
2022/04/12 13:18:13;;;;;;;2.27;1.90;;;;;;;;;;5016378;28;20267;-63
2022/04/12 13:20:38;;;;;;;3.90;2.17;;;;;;;;;;4999574;28;20218;-63
2022/04/12 13:23:04;;;;;;;6.23;2.67;;;;;;;;;;5017235;28;20172;-64
2022/04/12 13:25:30;;;;;;;4.20;1.77;;;;;;;;;;5017019;28;20190;-64
2022/04/12 13:27:57;;;;;;;2.33;1.67;;;;;;;;;;5017054;28;20659;-64
2022/04/12 13:30:23;;;;;;;2.43;2.07;;;;;;;;;;5017155;28;20259;-63
2022/04/12 13:32:49;;;;;;;4.07;2.00;;;;;;;;;;5016838;28;20725;-64
2022/04/12 13:35:17;;;;;;;4.33;2.43;;;;;;;;;;5016659;28;20239;-64
2022/04/12 13:37:43;;;;;;;4.17;2.20;;;;;;;;;;5016875;28;20176;-64
2022/04/12 13:40:09;;;;;;;7.10;2.60;;;;;;;;;;5017049;28;20203;-63
2022/04/12 13:42:36;;;;;;;4.47;2.73;;;;;;;;;;5016628;28;20179;-64
2022/04/12 13:45:02;;;;;;;3.30;2.37;;;;;;;;;;5016969;28;20260;-64
2022/04/12 13:47:28;;;;;;;4.53;1.90;;;;;;;;;;5016689;28;20180;-63
2022/04/12 13:49:56;;;;;;;2.20;1.80;;;;;;;;;;5016270;28;20207;-64
2022/04/12 13:52:23;;;;;;;2.80;1.80;;;;;;;;;;5016448;28;20535;-64
2022/04/12 13:54:49;;;;;;;9.00;2.40;;;;;;;;;;5016240;28;20207;-64
2022/04/12 13:57:15;;;;;;;3.00;1.70;;;;;;;;;;5016426;28;20183;-64
2022/04/12 13:59:41;;;;;;;2.93;1.90;;;;;;;;;;5016579;28;20180;-64
2022/04/12 14:02:07;;;;;;;1.87;1.70;;;;;;;;;;5016278;28;20198;-63
2022/04/12 14:04:33;;;;;;;4.37;1.90;;;;;;;;;;5016430;28;20216;-63
2022/04/12 14:06:59;;;;;;;3.13;1.97;;;;;;;;;;5016451;28;20530;-64
2022/04/12 14:09:25;;;;;;;6.73;2.30;;;;;;;;;;5016463;28;20180;-63
2022/04/12 14:11:52;;;;;;;2.87;1.77;;;;;;;;;;5016331;28;20210;-64
2022/04/12 14:14:18;;;;;;;6.40;2.23;;;;;;;;;;5016132;28;20196;-63
2022/04/12 14:16:45;;;;;;;3.63;1.80;;;;;;;;;;5016215;28;20632;-64
2022/04/12 14:19:12;;;;;;;2.93;2.10;;;;;;;;;;4998575;28;20226;-64
2022/04/12 14:21:38;;;;;;;3.37;2.00;;;;;;;;;;4998331;28;20180;-64
2022/04/12 14:24:04;;;;;;;2.27;1.90;;;;;;;;;;5015842;28;20565;-63
2022/04/12 14:26:30;;;;;;;2.80;2.10;;;;;;;;;;4998327;28;20191;-63
2022/04/12 14:28:56;;;;;;;6.30;2.00;;;;;;;;;;5016221;28;20180;-64
2022/04/12 14:31:22;;;;;;;2.20;1.90;;;;;;;;;;5015982;28;20191;-63
2022/04/12 14:33:48;;;;;;;4.97;2.00;;;;;;;;;;5016197;28;20539;-64
2022/04/12 14:36:15;;;;;;;2.97;1.77;;;;;;;;;;4998223;28;20200;-65
2022/04/12 14:38:42;;;;;;;3.03;2.00;;;;;;;;;;5015627;28;20174;-64
2022/04/12 14:41:08;;;;;;;3.43;1.93;;;;;;;;;;5015389;28;20636;-63
2022/04/12 14:43:34;;;;;;;3.07;2.17;;;;;;;;;;5015615;28;20193;-64